Flight Track Log - Related Links

Times and Time Zones

All times are in EDT time to prevent confusion due to time zone crossing. See the WIG1043 flight status page for this flight to view local times or setup timezone preferences in your user account.

Time Position Orientation Groundspeed Altitude Reporting Facility
EDT Latitude Longitude Course Direction KTS MPH feet Rate Location/Type
Mon 07:43:24 PM 44.7144 -68.7869 224° Southwest 174 200 4,000  Level Boston Center
Mon 07:44:24 PM 44.6786 -68.8433 228° Southwest 187 215 4,000  Level Boston Center
Mon 07:45:26 PM 44.6350 -68.9128 229° Southwest 191 220 4,000  Level Boston Center
Mon 07:46:27 PM 44.5983 -68.9686 227° Southwest 191 220 4,000  Level Boston Center
Mon 07:47:00 PM 44.6169 -69.0906 226° Southwest  Level FlightAware Approximate
Mon 07:47:27 PM 44.5622 -69.0253 228° Southwest 192 221 4,000  Level Boston Center
Mon 07:48:00 PM 44.5857 -69.1335 224° Southwest  Level FlightAware Approximate
Mon 07:48:28 PM 44.5253 -69.0817 227° Southwest 192 221 4,000  Level Boston Center
Mon 07:49:31 PM 44.4886 -69.1389 228° Southwest 193 222 4,000  Level Boston Center
Mon 07:50:33 PM 44.4519 -69.1953 228° Southwest 193 222 4,000  Level Boston Center
Mon 07:51:34 PM 44.4147 -69.2517 227° Southwest 193 222 4,000  Level Boston Center
Mon 07:52:34 PM 44.3772 -69.3086 227° Southwest 195 224 4,000  Level Boston Center
Mon 07:53:35 PM 44.3417 -69.3639 228° Southwest 193 222 4,000  Level Boston Center
Mon 07:54:38 PM 44.3042 -69.4197 227° Southwest 193 222 4,000  Level Boston Center
Mon 07:56:41 PM 44.2314 -69.5300 228° Southwest 192 221 4,000  Level Boston Center
Mon 07:57:42 PM 44.1944 -69.5867 228° Southwest 193 222 4,000  Level Boston Center
Mon 07:58:42 PM 44.1511 -69.6531 228° Southwest 197 227 4,000  Level Boston Center
Mon 07:59:43 PM 44.1136 -69.7089 227° Southwest 197 227 4,000  Level Boston Center
Mon 08:00:43 PM 44.0783 -69.7622 227° Southwest 192 221 4,000  Level Boston Center
Mon 08:01:47 PM 44.0408 -69.8178 227° Southwest 195 224 4,000  Level Boston Center
Mon 08:02:47 PM 44.0008 -69.8786 228° Southwest 196 226 4,000  Level Boston Center
Mon 08:03:49 PM 43.9650 -69.9331 228° Southwest 193 222 4,000  Level Boston Center
Mon 08:04:49 PM 43.9278 -69.9872 226° Southwest 194 223 4,000  Level Boston Center
Mon 08:05:50 PM 43.8928 -70.0419 228° Southwest 192 221 4,000  Level Boston Center
Mon 08:06:51 PM 43.8536 -70.0989 226° Southwest 191 220 4,000  Level Boston Center
Mon 08:07:54 PM 43.8172 -70.1539 227° Southwest 191 220 4,000  Level Boston Center
Mon 08:08:53 PM 43.7811 -70.2083 227° Southwest 191 220 4,000  Level Boston Center
Mon 08:09:54 PM 43.7439 -70.2617 226° Southwest 191 220 4,000  Level Boston Center
Mon 08:10:56 PM 43.7081 -70.3164 228° Southwest 192 221 4,000  Level Boston Center
Mon 08:11:56 PM 43.6683 -70.3731 226° Southwest 192 221 4,000  Level Boston Center
Mon 08:13:00 PM 43.6311 -70.4267 226° Southwest 192 221 4,000  Level Boston Center
Mon 08:14:00 PM 43.5944 -70.4800 227° Southwest 192 221 4,000  Level Boston Center
Mon 08:15:01 PM 43.5583 -70.5336 227° Southwest 191 220 4,000  Level Boston Center
Mon 08:16:01 PM 43.5206 -70.5861 225° Southwest 192 221 4,000  Level Boston Center
Mon 08:17:02 PM 43.4806 -70.6433 226° Southwest 192 221 4,000  Level Boston Center
Mon 08:18:04 PM 43.4453 -70.6972 228° Southwest 191 220 4,000  Level Boston Center
Mon 08:19:06 PM 43.4058 -70.7492 224° Southwest 192 221 4,000  Level Boston Center
Mon 08:20:06 PM 43.3667 -70.8131 230° Southwest 210 242 4,000  Level Boston Center
Mon 08:21:07 PM 43.3308 -70.8689 229° Southwest 201 231 4,000  Level Boston Center
Mon 08:22:09 PM 43.2911 -70.9194 223° Southwest 200 230 4,000  Level Boston Center
Mon 08:23:10 PM 43.2508 -70.9786 227° Southwest 199 229 4,000 50 Level Boston Center
Mon 08:24:10 PM 43.2128 -71.0372 228° Southwest 206 237 4,100  Climbing Boston Center
Mon 08:25:11 PM 43.1736 -71.0903 225° Southwest 203 234 4,000 -49 Descending Boston Center
Mon 08:26:13 PM 43.1375 -71.1492 230° Southwest 202 232 4,000 -198 Level Boston Center
Mon 08:27:12 PM 43.1003 -71.2050 228° Southwest 199 229 3,600 -443 Descending Boston Center
Mon 08:28:15 PM 43.0619 -71.2647 229° Southwest 198 228 3,100 -484 Descending Boston Center
Mon 08:29:16 PM 43.0292 -71.3211 232° Southwest 194 223 2,600 -600 Descending Boston Center
Mon 08:30:15 PM 42.9931 -71.3703 225° Southwest 187 215 1,900 -793 Descending Boston Center
Mon 08:31:17 PM 42.9611 -71.4078 221° Southwest 136 157 1,000 -726 Descending Boston Center
Mon 08:32:19 PM 42.9411 -71.4333 223° Southwest 129 148 400 -581 Descending Boston Center
Mon 08:34:00 PM 42.9328 -71.4358 222° Southwest  Level Estimated

Login

Don't have an account? Register now (free) for customized features, flight alerts, and more!